Time;durP1;ratioP1;P1;durP2;ratioP2;P2;SDS_P1;SDS_P2;PMS_P1;PMS_P2;Temp;Humidity;BMP_temperature;BMP_pressure;BME280_temperature;BME280_humidity;BME280_pressure;Samples;Min_cycle;Max_cycle;Signal;HPM_P1;HPM_P2
2022/04/14 00:01:55;;;;;;;9.90;6.40;;;11.90;99.90;;;;;;5097956;28;20126;-78
2022/04/14 00:04:23;;;;;;;8.80;6.07;;;11.90;99.90;;;;;;5097608;28;20055;-77
2022/04/14 00:06:48;;;;;;;9.85;6.82;;;11.90;99.90;;;;;;5097473;28;20073;-77
2022/04/14 00:09:14;;;;;;;8.88;6.32;;;11.90;99.90;;;;;;5114454;28;20047;-78
2022/04/14 00:11:40;;;;;;;9.65;6.40;;;11.80;99.90;;;;;;5098051;28;20044;-78
2022/04/14 00:14:06;;;;;;;10.27;6.00;;;11.90;99.90;;;;;;5081012;28;20047;-78
2022/04/14 00:16:31;;;;;;;11.15;6.35;;;11.80;99.90;;;;;;5114884;28;20054;-78
2022/04/14 00:18:57;;;;;;;9.10;5.78;;;11.80;99.90;;;;;;5114549;28;20043;-77
2022/04/14 00:21:23;;;;;;;8.60;6.50;;;11.80;99.90;;;;;;5114934;28;20122;-78
2022/04/14 00:23:49;;;;;;;12.35;6.38;;;11.80;99.90;;;;;;5097433;28;20086;-78
2022/04/14 00:26:15;;;;;;;12.10;6.07;;;11.80;99.90;;;;;;5080816;28;20062;-77
2022/04/14 00:28:46;;;;;;;11.90;7.03;;;11.80;99.90;;;;;;5098802;28;20051;-78
2022/04/14 00:31:11;;;;;;;12.90;7.80;;;11.80;99.90;;;;;;5097750;28;20083;-77
2022/04/14 00:33:37;;;;;;;13.30;7.93;;;11.70;99.90;;;;;;5080781;28;20468;-78
2022/04/14 00:36:03;;;;;;;9.18;7.55;;;11.70;99.90;;;;;;5110254;28;20062;-78
2022/04/14 00:38:29;;;;;;;9.85;7.38;;;11.60;99.90;;;;;;5094625;28;20126;-78
2022/04/14 00:40:56;;;;;;;9.35;8.13;;;11.70;99.90;;;;;;5077556;28;20044;-77
2022/04/14 00:43:31;;;;;;;12.32;8.50;;;11.60;99.90;;;;;;5080598;28;20391;-78
2022/04/14 00:46:02;;;;;;;11.93;8.35;;;11.60;99.90;;;;;;5098792;28;20150;-77
2022/04/14 00:48:28;;;;;;;12.93;9.10;;;11.70;99.90;;;;;;5098268;28;20050;-77
2022/04/14 00:50:55;;;;;;;11.75;8.18;;;11.60;99.90;;;;;;5113919;28;20503;-77
2022/04/14 00:53:28;;;;;;;12.45;9.02;;;11.60;99.90;;;;;;5097341;28;20123;-78
2022/04/14 00:55:53;;;;;;;11.32;9.23;;;11.60;99.90;;;;;;5098725;28;20081;-77
2022/04/14 00:58:20;;;;;;;13.25;9.23;;;11.50;99.90;;;;;;5080611;28;20051;-77
2022/04/14 01:00:47;;;;;;;12.90;8.75;;;11.50;99.90;;;;;;5097773;28;20043;-77
2022/04/14 01:03:17;;;;;;;15.60;8.88;;;11.40;99.90;;;;;;5113999;28;20122;-77
2022/04/14 01:05:44;;;;;;;14.45;9.65;;;11.40;99.90;;;;;;5060401;28;20353;-77
2022/04/14 01:08:10;;;;;;;11.57;8.90;;;11.40;99.90;;;;;;5097247;28;20411;-77
2022/04/14 01:10:42;;;;;;;12.93;8.77;;;11.40;99.90;;;;;;5082473;28;20086;-77
2022/04/14 01:13:10;;;;;;;12.38;9.45;;;11.30;99.90;;;;;;5113508;28;20407;-77
2022/04/14 01:15:36;;;;;;;13.10;9.50;;;11.30;99.90;;;;;;5113331;28;20495;-78
2022/04/14 01:18:02;;;;;;;10.35;9.10;;;11.30;99.90;;;;;;5097313;28;20062;-78
2022/04/14 01:20:28;;;;;;;13.68;9.32;;;11.20;99.90;;;;;;5113730;28;20043;-77
2022/04/14 01:22:57;;;;;;;13.15;9.57;;;11.20;99.90;;;;;;5097215;28;20066;-77
2022/04/14 01:25:32;;;;;;;13.18;9.30;;;11.10;99.90;;;;;;5098726;28;20104;-78
2022/04/14 01:27:58;;;;;;;12.90;8.60;;;11.10;99.90;;;;;;5097126;28;20089;-77
2022/04/14 01:30:24;;;;;;;12.25;9.60;;;11.00;99.90;;;;;;5113553;28;20051;-78
2022/04/14 01:32:50;;;;;;;10.38;9.25;;;11.00;99.90;;;;;;5114039;28;20106;-77
2022/04/14 01:35:16;;;;;;;11.23;9.63;;;10.90;99.90;;;;;;5113097;28;20112;-78
2022/04/14 01:37:41;;;;;;;14.95;9.90;;;10.90;99.90;;;;;;5114057;28;20063;-77
2022/04/14 01:40:08;;;;;;;12.55;9.52;;;10.90;99.90;;;;;;5096495;28;20039;-78
2022/04/14 01:42:34;;;;;;;13.20;10.25;;;10.80;99.90;;;;;;5113779;28;20046;-77
2022/04/14 01:44:59;;;;;;;12.77;10.10;;;10.80;99.90;;;;;;5114287;28;20052;-77
2022/04/14 01:47:25;;;;;;;14.55;10.38;;;10.80;99.90;;;;;;5096273;28;20047;-77
2022/04/14 01:49:51;;;;;;;13.02;10.82;;;10.70;99.90;;;;;;5113923;28;20399;-77
2022/04/14 01:52:18;;;;;;;15.38;10.60;;;10.70;99.90;;;;;;5096074;28;20126;-77
2022/04/14 01:54:43;;;;;;;13.93;9.93;;;10.70;99.90;;;;;;5063458;28;20044;-77
2022/04/14 01:57:09;;;;;;;12.63;10.93;;;10.60;99.90;;;;;;5096253;28;20044;-79
2022/04/14 01:59:35;;;;;;;14.88;10.90;;;10.60;99.90;;;;;;5096669;28;20105;-77
2022/04/14 02:02:00;;;;;;;14.38;11.55;;;10.60;99.90;;;;;;5063068;28;20054;-77
2022/04/14 02:04:26;;;;;;;13.27;11.05;;;10.60;99.90;;;;;;5079309;28;20090;-77
2022/04/14 02:06:52;;;;;;;12.93;11.32;;;10.60;99.90;;;;;;5095710;28;20069;-77
2022/04/14 02:09:19;;;;;;;16.33;11.43;;;10.60;99.90;;;;;;5079041;28;20147;-77
2022/04/14 02:11:44;;;;;;;16.73;11.60;;;10.60;99.90;;;;;;5079716;28;20511;-77
2022/04/14 02:14:10;;;;;;;14.30;10.65;;;10.60;99.90;;;;;;5096557;28;20047;-77
2022/04/14 02:16:36;;;;;;;13.80;10.73;;;10.50;99.90;;;;;;5078861;28;20138;-77
2022/04/14 02:19:02;;;;;;;15.50;11.90;;;10.50;99.90;;;;;;5095768;28;20138;-77
2022/04/14 02:21:29;;;;;;;17.58;11.27;;;10.50;99.90;;;;;;5095693;28;20139;-77
2022/04/14 02:23:55;;;;;;;14.73;10.93;;;10.50;99.90;;;;;;5112882;28;20100;-77
2022/04/14 02:26:20;;;;;;;15.57;10.70;;;10.40;99.90;;;;;;5095873;28;20039;-77
2022/04/14 02:28:47;;;;;;;12.90;11.27;;;10.40;99.90;;;;;;5095889;28;20126;-79
2022/04/14 02:31:26;;;;;;;14.18;11.40;;;10.40;99.90;;;;;;5097264;28;20048;-77
2022/04/14 02:33:53;;;;;;;12.95;11.57;;;10.30;99.90;;;;;;5112335;28;20088;-77
2022/04/14 02:36:20;;;;;;;14.80;12.13;;;10.30;99.90;;;;;;5076608;28;20087;-77
2022/04/14 02:38:48;;;;;;;16.25;12.30;;;10.30;99.90;;;;;;5111451;28;20138;-77
2022/04/14 02:41:15;;;;;;;17.98;13.40;;;10.20;99.90;;;;;;5112437;28;20044;-82
2022/04/14 02:43:55;;;;;;;16.70;12.32;;;10.20;99.90;;;;;;5097682;28;20392;-77
2022/04/14 02:46:30;;;;;;;14.50;12.38;;;10.10;99.90;;;;;;5096644;28;20100;-77
2022/04/14 02:48:56;;;;;;;14.52;12.10;;;10.10;99.90;;;;;;5078709;28;20044;-77
2022/04/14 02:51:22;;;;;;;15.88;13.27;;;10.10;99.90;;;;;;5078437;28;20127;-77
2022/04/14 02:53:49;;;;;;;15.30;13.35;;;10.10;99.90;;;;;;5112341;28;20058;-78
2022/04/14 02:56:16;;;;;;;18.00;15.25;;;10.00;99.90;;;;;;5095736;28;20063;-79
2022/04/14 02:58:42;;;;;;;18.20;14.93;;;10.00;99.90;;;;;;5078476;28;20039;-77
2022/04/14 03:01:07;;;;;;;19.55;15.30;;;10.00;99.90;;;;;;5094592;28;20177;-77
2022/04/14 03:03:33;;;;;;;20.33;15.88;;;10.00;99.90;;;;;;5061488;28;20058;-81
2022/04/14 03:05:59;;;;;;;20.70;16.33;;;10.00;99.90;;;;;;5095439;28;20509;-78
2022/04/14 03:08:24;;;;;;;18.85;15.73;;;10.00;99.90;;;;;;5113004;28;20495;-78
2022/04/14 03:10:50;;;;;;;19.88;16.05;;;10.00;99.90;;;;;;5113389;28;20039;-78
2022/04/14 03:13:16;;;;;;;21.10;15.30;;;10.00;99.90;;;;;;5112115;28;20039;-78
2022/04/14 03:15:42;;;;;;;21.25;15.63;;;10.00;99.90;;;;;;5111672;28;20043;-78
2022/04/14 03:18:08;;;;;;;20.30;16.42;;;10.00;99.90;;;;;;5112238;28;20059;-78
2022/04/14 03:20:33;;;;;;;19.58;16.10;;;9.90;99.90;;;;;;5112779;28;20040;-78
2022/04/14 03:23:00;;;;;;;18.02;15.25;;;9.90;99.90;;;;;;5112264;28;20058;-77
2022/04/14 03:25:26;;;;;;;21.88;16.17;;;9.90;99.90;;;;;;5111824;28;20059;-78
2022/04/14 03:27:51;;;;;;;21.48;17.02;;;9.90;99.90;;;;;;5112136;28;20387;-78
2022/04/14 03:30:17;;;;;;;21.33;17.35;;;9.80;99.90;;;;;;5113016;28;20096;-80
2022/04/14 03:32:46;;;;;;;23.77;18.38;;;9.80;99.90;;;;;;5111633;28;20087;-78
2022/04/14 03:35:12;;;;;;;20.70;17.30;;;9.80;99.90;;;;;;5095523;27;20138;-80
2022/04/14 03:37:38;;;;;;;24.08;17.90;;;9.70;99.90;;;;;;5133334;28;20403;-79
2022/04/14 03:40:05;;;;;;;21.65;17.95;;;9.80;99.90;;;;;;5115247;28;20047;-79
2022/04/14 03:42:30;;;;;;;21.98;18.77;;;9.70;99.90;;;;;;5064518;28;20062;-78
2022/04/14 03:44:57;;;;;;;26.20;20.10;;;9.70;99.90;;;;;;5098499;28;20043;-78
2022/04/14 03:47:23;;;;;;;24.85;20.30;;;9.70;99.90;;;;;;5133164;28;20179;-83
2022/04/14 03:49:49;;;;;;;24.38;19.88;;;9.70;99.90;;;;;;5115258;28;20087;-78
2022/04/14 03:52:15;;;;;;;23.90;18.75;;;9.70;99.90;;;;;;5115276;28;20046;-78
2022/04/14 03:54:40;;;;;;;25.45;20.67;;;9.60;99.90;;;;;;5080693;28;20043;-78
2022/04/14 03:57:06;;;;;;;26.40;21.75;;;9.60;99.90;;;;;;5115007;28;20238;-78
2022/04/14 03:59:32;;;;;;;28.50;21.83;;;9.60;99.90;;;;;;5097932;28;20043;-78
2022/04/14 04:01:57;;;;;;;30.25;22.08;;;9.60;99.90;;;;;;5115385;28;20394;-78
2022/04/14 04:04:23;;;;;;;30.50;21.52;;;9.60;99.90;;;;;;5098124;28;20386;-79
2022/04/14 04:06:49;;;;;;;27.65;21.95;;;9.60;99.90;;;;;;5097900;28;20043;-77
2022/04/14 04:09:15;;;;;;;27.42;21.73;;;9.60;99.90;;;;;;5114214;28;20415;-76
2022/04/14 04:11:40;;;;;;;30.77;24.52;;;9.60;99.90;;;;;;5097606;28;20035;-77
2022/04/14 04:14:06;;;;;;;33.90;25.35;;;9.60;99.90;;;;;;5098073;28;20047;-78
2022/04/14 04:16:32;;;;;;;29.40;24.67;;;9.50;99.90;;;;;;5098340;27;20054;-77
2022/04/14 04:18:58;;;;;;;36.05;23.90;;;9.50;99.90;;;;;;5118938;27;20039;-76
2022/04/14 04:21:26;;;;;;;30.40;24.25;;;9.40;99.90;;;;;;5085227;27;20047;-77
2022/04/14 04:23:52;;;;;;;27.13;23.10;;;9.50;99.90;;;;;;5085806;27;20436;-77
2022/04/14 04:26:18;;;;;;;29.90;23.30;;;9.50;99.90;;;;;;5118684;27;20082;-77
2022/04/14 04:28:44;;;;;;;28.73;22.77;;;9.40;99.90;;;;;;5136501;27;20444;-77
2022/04/14 04:31:10;;;;;;;27.35;23.20;;;9.40;99.90;;;;;;5101900;27;20043;-77
2022/04/14 04:33:35;;;;;;;26.38;22.30;;;9.40;99.90;;;;;;5136540;27;20051;-77
2022/04/14 04:36:01;;;;;;;30.38;22.90;;;9.40;99.90;;;;;;5118222;27;20059;-78
2022/04/14 04:38:27;;;;;;;28.45;22.23;;;9.40;99.90;;;;;;5118707;27;20035;-77
2022/04/14 04:40:52;;;;;;;29.77;23.77;;;9.30;99.90;;;;;;5136369;27;20066;-78
2022/04/14 04:43:18;;;;;;;32.17;23.75;;;9.30;99.90;;;;;;5136648;27;20100;-77
2022/04/14 04:45:44;;;;;;;32.25;24.50;;;9.30;99.90;;;;;;5118103;27;20667;-77
2022/04/14 04:48:10;;;;;;;33.33;25.30;;;9.30;99.90;;;;;;5136664;27;20043;-78
2022/04/14 04:50:36;;;;;;;30.05;25.98;;;9.30;99.90;;;;;;5083999;27;20055;-79
2022/04/14 04:53:01;;;;;;;34.83;26.60;;;9.20;99.90;;;;;;5101499;27;20498;-78
2022/04/14 04:55:27;;;;;;;35.10;26.13;;;9.30;99.90;;;;;;5084339;27;20394;-78
2022/04/14 04:57:53;;;;;;;36.03;27.27;;;9.30;99.90;;;;;;5084012;27;20035;-77
2022/04/14 05:00:18;;;;;;;33.78;26.35;;;9.30;99.90;;;;;;5084461;27;20039;-77
2022/04/14 05:02:45;;;;;;;30.55;25.35;;;9.30;99.90;;;;;;5117443;27;20040;-77
2022/04/14 05:05:10;;;;;;;32.00;25.02;;;9.30;99.90;;;;;;5101435;27;20578;-78
2022/04/14 05:07:36;;;;;;;32.92;24.80;;;9.30;99.90;;;;;;5117655;27;20122;-78
2022/04/14 05:10:02;;;;;;;33.00;25.20;;;9.30;99.90;;;;;;5084350;27;20086;-78
2022/04/14 05:12:27;;;;;;;30.20;24.98;;;9.30;99.90;;;;;;5084245;27;20070;-77
2022/04/14 05:14:53;;;;;;;29.13;23.67;;;9.20;99.90;;;;;;5117410;27;20031;-77
2022/04/14 05:17:19;;;;;;;30.10;23.63;;;9.20;99.90;;;;;;5100964;27;20051;-78
2022/04/14 05:19:44;;;;;;;33.83;25.70;;;9.20;99.90;;;;;;5117504;27;20399;-78
2022/04/14 05:22:10;;;;;;;32.08;23.90;;;9.20;99.90;;;;;;5083983;27;20054;-80
2022/04/14 05:24:36;;;;;;;33.97;25.00;;;9.20;99.90;;;;;;5100229;27;20053;-79
2022/04/14 05:27:01;;;;;;;30.75;23.67;;;9.20;99.90;;;;;;5083901;27;20066;-79
2022/04/14 05:29:27;;;;;;;32.47;25.33;;;9.20;99.90;;;;;;5117483;27;20487;-78
2022/04/14 05:31:53;;;;;;;34.30;25.15;;;9.10;99.90;;;;;;5083454;27;20407;-78
2022/04/14 05:34:18;;;;;;;29.42;25.13;;;9.20;99.90;;;;;;5117548;27;20082;-78
2022/04/14 05:36:44;;;;;;;28.20;22.00;;;9.20;99.90;;;;;;5116827;27;20055;-80
2022/04/14 05:39:10;;;;;;;27.50;21.35;;;9.20;99.90;;;;;;5083595;27;20051;-79
2022/04/14 05:41:35;;;;;;;32.15;23.42;;;9.20;99.90;;;;;;5100503;27;20078;-79
2022/04/14 05:44:01;;;;;;;27.65;20.95;;;9.20;99.90;;;;;;5117036;27;20490;-80
2022/04/14 05:46:26;;;;;;;27.42;22.02;;;9.20;99.90;;;;;;5117172;27;20047;-80
2022/04/14 05:48:52;;;;;;;27.27;23.33;;;9.20;99.90;;;;;;5116859;27;20043;-79
2022/04/14 05:51:20;;;;;;;30.95;23.92;;;9.20;99.90;;;;;;5135240;27;20066;-80
2022/04/14 05:53:49;;;;;;;30.45;25.45;;;9.30;99.90;;;;;;5083298;27;20191;-79
2022/04/14 05:56:16;;;;;;;35.67;27.75;;;9.30;99.90;;;;;;5067343;27;20046;-80
2022/04/14 05:58:43;;;;;;;36.03;27.58;;;9.40;99.90;;;;;;5083172;27;20093;-80
2022/04/14 06:01:08;;;;;;;32.22;27.67;;;9.30;99.90;;;;;;5082962;27;20054;-78
2022/04/14 06:03:34;;;;;;;37.00;28.40;;;9.40;99.90;;;;;;5099957;27;20402;-77
2022/04/14 06:06:00;;;;;;;35.95;29.75;;;9.50;99.90;;;;;;5099563;27;20059;-77
2022/04/14 06:08:25;;;;;;;39.53;29.80;;;9.50;99.90;;;;;;5134999;27;20109;-77
2022/04/14 06:10:51;;;;;;;38.00;30.02;;;9.60;99.90;;;;;;5099602;27;20046;-77
2022/04/14 06:13:17;;;;;;;35.00;29.75;;;9.60;99.90;;;;;;5083081;27;20047;-76
2022/04/14 06:15:43;;;;;;;38.90;29.77;;;9.70;99.90;;;;;;5134422;27;20039;-80
2022/04/14 06:18:11;;;;;;;43.22;29.92;;;9.80;99.90;;;;;;5134837;27;20039;-76
2022/04/14 06:20:37;;;;;;;41.45;30.80;;;9.80;99.90;;;;;;5082919;27;20067;-77
2022/04/14 06:23:03;;;;;;;42.03;30.10;;;10.00;99.90;;;;;;5115310;27;20182;-77
2022/04/14 06:25:35;;;;;;;41.80;29.58;;;10.10;99.90;;;;;;5084340;27;20078;-77
2022/04/14 06:28:03;;;;;;;40.30;29.70;;;10.30;99.90;;;;;;5115985;27;20081;-77
2022/04/14 06:30:29;;;;;;;38.20;28.92;;;10.40;99.90;;;;;;5116444;27;20471;-76
2022/04/14 06:33:00;;;;;;;41.20;31.40;;;10.40;99.90;;;;;;5114898;27;20119;-76
2022/04/14 06:35:26;;;;;;;37.30;30.10;;;10.50;99.90;;;;;;5115754;27;20055;-77
2022/04/14 06:37:52;;;;;;;40.45;31.48;;;10.50;99.90;;;;;;5114342;27;20059;-77
2022/04/14 06:40:20;;;;;;;39.22;30.15;;;10.60;99.90;;;;;;5098469;27;20487;-76
2022/04/14 06:42:46;;;;;;;39.17;30.42;;;10.60;99.90;;;;;;5115800;27;20049;-81
2022/04/14 06:45:12;;;;;;;38.25;28.60;;;10.60;99.90;;;;;;5082090;27;20407;-77
2022/04/14 06:47:38;;;;;;;38.92;29.27;;;10.60;99.90;;;;;;5082218;27;20050;-76
2022/04/14 06:50:04;;;;;;;37.03;28.40;;;10.60;99.90;;;;;;5081820;27;20502;-76
2022/04/14 06:52:29;;;;;;;36.80;28.52;;;10.60;99.90;;;;;;5134096;27;20039;-76
2022/04/14 06:54:55;;;;;;;35.00;27.60;;;10.60;99.90;;;;;;5097405;27;20088;-77
2022/04/14 06:57:21;;;;;;;36.10;27.55;;;10.60;99.90;;;;;;5115868;27;20039;-76
2022/04/14 06:59:46;;;;;;;36.08;28.35;;;10.70;99.90;;;;;;5115672;27;20086;-76
2022/04/14 07:02:12;;;;;;;36.85;27.98;;;10.70;99.90;;;;;;5080855;27;20057;-76
2022/04/14 07:04:38;;;;;;;37.05;27.85;;;10.70;99.90;;;;;;5115789;27;20131;-76
2022/04/14 07:07:04;;;;;;;36.00;27.73;;;10.70;99.90;;;;;;5081568;27;20047;-77
2022/04/14 07:09:32;;;;;;;35.92;26.95;;;10.70;99.90;;;;;;5098128;27;20429;-76
2022/04/14 07:12:01;;;;;;;37.20;28.25;;;10.80;99.90;;;;;;5098491;27;20049;-77
2022/04/14 07:14:28;;;;;;;36.08;27.35;;;10.90;99.90;;;;;;5098441;27;20069;-77
2022/04/14 07:16:54;;;;;;;34.97;27.55;;;11.00;99.90;;;;;;5133249;27;20047;-77
2022/04/14 07:19:20;;;;;;;34.55;25.85;;;11.00;99.90;;;;;;5115374;27;20126;-76
2022/04/14 07:21:49;;;;;;;33.38;25.40;;;11.10;99.90;;;;;;5081792;27;20126;-77
2022/04/14 07:24:21;;;;;;;31.75;25.80;;;11.20;99.90;;;;;;5096437;27;20055;-76
2022/04/14 07:26:47;;;;;;;33.03;25.52;;;11.30;99.90;;;;;;5082630;27;20092;-77
2022/04/14 07:29:12;;;;;;;29.58;24.27;;;11.40;99.90;;;;;;5064687;27;20050;-77
2022/04/14 07:31:40;;;;;;;31.90;24.85;;;11.50;99.90;;;;;;5098344;27;20069;-77
2022/04/14 07:34:06;;;;;;;31.30;23.25;;;11.60;99.90;;;;;;5098351;28;20126;-77
2022/04/14 07:36:33;;;;;;;31.70;23.75;;;11.60;99.90;;;;;;5094900;28;20051;-77
2022/04/14 07:38:58;;;;;;;29.98;22.98;;;11.80;99.90;;;;;;5111473;28;20103;-77
2022/04/14 07:41:26;;;;;;;27.80;22.58;;;11.90;99.90;;;;;;5111857;28;20086;-76
2022/04/14 07:43:51;;;;;;;26.38;21.90;;;12.00;99.90;;;;;;5095194;28;20040;-76
2022/04/14 07:46:17;;;;;;;26.13;20.85;;;12.10;99.90;;;;;;5094504;28;20048;-75
2022/04/14 07:48:43;;;;;;;26.52;20.98;;;12.30;99.90;;;;;;5111783;28;20058;-75
2022/04/14 07:51:09;;;;;;;24.60;20.73;;;12.30;99.90;;;;;;5096188;28;20040;-75
2022/04/14 07:53:34;;;;;;;26.20;20.63;;;12.30;99.90;;;;;;5116210;28;20399;-75
2022/04/14 07:56:01;;;;;;;26.30;19.98;;;12.50;99.90;;;;;;5116594;28;20040;-78
2022/04/14 07:58:33;;;;;;;23.60;19.63;;;12.60;99.90;;;;;;5115853;28;20050;-77
2022/04/14 08:00:59;;;;;;;28.48;20.52;;;12.60;99.90;;;;;;5098569;28;20130;-79
2022/04/14 08:03:24;;;;;;;25.52;20.52;;;12.60;99.90;;;;;;5098974;28;20052;-81
2022/04/14 08:05:51;;;;;;;25.70;21.65;;;12.70;99.90;;;;;;5098987;28;20102;-79
2022/04/14 08:08:19;;;;;;;32.05;26.02;;;12.70;99.90;;;;;;5081657;28;20071;-80
2022/04/14 08:10:46;;;;;;;30.88;22.27;;;12.70;99.90;;;;;;5115248;28;20495;-81
2022/04/14 08:13:12;;;;;;;25.52;20.75;;;12.70;99.90;;;;;;5081444;28;20047;-77
2022/04/14 08:15:44;;;;;;;26.38;21.88;;;12.70;99.90;;;;;;5098462;28;20445;-77
2022/04/14 08:18:15;;;;;;;26.38;21.75;;;12.80;99.90;;;;;;5066215;28;20105;-77
2022/04/14 08:20:40;;;;;;;;;;;12.80;99.90;;;;;;5095257;28;20047;-74
2022/04/14 08:23:07;;;;;;;26.75;22.08;;;12.80;99.90;;;;;;5116050;28;20359;-77
2022/04/14 08:25:43;;;;;;;27.65;24.13;;;12.80;99.90;;;;;;5099465;28;20503;-77
2022/04/14 08:28:10;;;;;;;27.88;22.20;;;12.90;99.90;;;;;;5062443;28;20065;-77
2022/04/14 08:30:36;;;;;;;26.70;22.63;;;12.90;99.90;;;;;;5065043;28;20061;-76
2022/04/14 08:33:07;;;;;;;27.45;23.75;;;12.90;99.90;;;;;;5114434;28;20036;-79
2022/04/14 08:35:35;;;;;;;32.05;27.02;;;13.00;99.90;;;;;;5114653;28;20455;-78
2022/04/14 08:38:08;;;;;;;26.67;22.83;;;13.00;99.90;;;;;;5097377;28;20064;-79
2022/04/14 08:40:42;;;;;;;28.40;24.42;;;13.00;99.90;;;;;;5066266;28;20040;-77
2022/04/14 08:43:10;;;;;;;25.20;21.98;;;13.00;99.90;;;;;;5097057;28;20078;-77
2022/04/14 08:45:46;;;;;;;26.67;21.77;;;13.00;99.90;;;;;;5114869;28;20094;-77
2022/04/14 08:48:20;;;;;;;23.30;20.05;;;13.10;99.90;;;;;;5099766;28;20048;-77
2022/04/14 08:50:53;;;;;;;23.95;20.25;;;13.10;99.90;;;;;;5114907;28;20136;-76
2022/04/14 08:53:26;;;;;;;26.88;21.50;;;13.10;99.90;;;;;;5081757;28;20047;-77
2022/04/14 08:55:54;;;;;;;25.48;21.27;;;13.10;99.90;;;;;;5080906;28;20039;-76
2022/04/14 08:58:19;;;;;;;23.55;20.95;;;13.10;99.90;;;;;;5081085;28;20043;-76
2022/04/14 09:00:46;;;;;;;23.75;19.95;;;13.20;99.90;;;;;;5064383;28;20112;-76
2022/04/14 09:03:15;;;;;;;22.95;20.40;;;13.20;99.90;;;;;;5079537;28;20048;-77
2022/04/14 09:05:52;;;;;;;23.60;19.83;;;13.30;99.90;;;;;;5113943;28;20112;-76
2022/04/14 09:08:17;;;;;;;22.85;20.45;;;13.30;99.90;;;;;;5080647;28;20053;-77
2022/04/14 09:10:43;;;;;;;22.95;20.30;;;13.30;99.90;;;;;;5097496;28;20508;-76
2022/04/14 09:13:37;;;;;;;21.50;19.30;;;13.40;99.90;;;;;;5096138;28;20059;-77
2022/04/14 09:16:02;;;;;;;23.63;19.48;;;13.40;99.90;;;;;;5096776;28;20109;-77
2022/04/14 09:18:29;;;;;;;21.80;18.10;;;13.40;99.90;;;;;;5079943;28;20504;-77
2022/04/14 09:21:07;;;;;;;21.23;17.80;;;13.50;99.90;;;;;;5080015;28;20060;-77
2022/04/14 09:23:33;;;;;;;19.70;17.60;;;13.60;99.90;;;;;;5080329;28;20051;-77
2022/04/14 09:26:24;;;;;;;19.15;17.05;;;13.60;99.90;;;;;;5113088;28;20044;-77
2022/04/14 09:29:10;;;;;;;18.88;16.65;;;13.80;99.90;;;;;;5113735;28;20077;-76
2022/04/14 09:31:47;;;;;;;17.88;15.93;;;13.90;99.90;;;;;;5097840;28;20518;-77
2022/04/14 09:34:48;;;;;;;17.77;15.88;;;14.00;99.90;;;;;;5113909;28;20120;-77
2022/04/14 09:37:14;;;;;;;17.13;14.30;;;14.20;99.90;;;;;;5112985;28;20128;-77
2022/04/14 09:40:08;;;;;;;15.48;13.23;;;14.30;99.90;;;;;;5097028;28;20131;-79
2022/04/14 09:42:35;;;;;;;16.05;12.63;;;14.40;99.90;;;;;;5096701;28;20484;-77
2022/04/14 09:45:20;;;;;;;14.30;11.30;;;14.50;99.90;;;;;;5080190;28;20052;-79
2022/04/14 09:47:53;;;;;;;15.82;12.23;;;14.60;99.90;;;;;;5094948;28;20056;-77
2022/04/14 09:50:40;;;;;;;13.48;12.07;;;14.60;99.90;;;;;;5108017;28;20130;-77
2022/04/14 09:53:16;;;;;;;16.38;12.93;;;14.70;99.90;;;;;;5066377;28;20054;-77
2022/04/14 09:56:01;;;;;;;15.90;11.77;;;14.80;99.90;;;;;;5096354;28;20060;-77
2022/04/14 09:58:30;;;;;;;12.75;11.05;;;14.90;99.90;;;;;;5098113;28;20047;-77
2022/04/14 10:01:03;;;;;;;12.40;10.07;;;14.90;99.90;;;;;;5079649;28;20047;-77
2022/04/14 10:03:31;;;;;;;11.90;9.52;;;15.00;99.90;;;;;;5079596;28;20048;-77
2022/04/14 10:06:08;;;;;;;12.45;9.43;;;15.10;99.90;;;;;;5096686;28;20081;-76
2022/04/14 10:08:51;;;;;;;11.43;8.30;;;15.20;99.90;;;;;;5112066;28;20480;-77
2022/04/14 10:11:29;;;;;;;11.13;8.32;;;15.30;99.90;;;;;;5062038;28;20059;-77
2022/04/14 10:14:13;;;;;;;10.82;7.50;;;15.40;99.90;;;;;;5095826;28;20058;-77
2022/04/14 10:16:43;;;;;;;12.02;7.18;;;15.50;99.90;;;;;;5080832;28;20063;-78
2022/04/14 10:19:09;;;;;;;8.88;6.78;;;15.50;99.90;;;;;;5095721;28;20066;-77
2022/04/14 10:21:38;;;;;;;7.90;6.30;;;15.40;99.90;;;;;;5095571;28;20459;-77
2022/04/14 10:24:14;;;;;;;7.43;5.95;;;15.50;99.90;;;;;;5096062;28;20526;-77
2022/04/14 10:26:57;;;;;;;7.35;5.22;;;15.40;99.90;;;;;;5080837;28;20052;-77
2022/04/14 10:29:30;;;;;;;7.68;6.00;;;15.40;99.90;;;;;;5111678;28;20059;-78
2022/04/14 10:32:17;;;;;;;7.30;5.45;;;15.40;99.90;;;;;;5112996;28;20127;-77
2022/04/14 10:34:49;;;;;;;8.48;5.07;;;15.40;99.90;;;;;;5096779;28;20086;-77
2022/04/14 10:38:26;;;;;;;6.55;4.80;;;15.50;99.90;;;;;;5111807;28;20070;-77
2022/04/14 10:41:32;;;;;;;7.25;5.07;;;15.60;99.60;;;;;;5110081;28;20472;-77
2022/04/14 10:44:09;;;;;;;7.80;4.20;;;15.60;99.90;;;;;;5020509;28;20475;-77
2022/04/14 10:46:46;;;;;;;7.38;5.15;;;15.70;99.90;;;;;;5104280;28;20407;-77
2022/04/14 10:49:33;;;;;;;7.68;5.18;;;15.90;99.90;;;;;;5081173;28;20051;-78
2022/04/14 10:52:24;;;;;;;9.57;4.50;;;16.00;99.90;;;;;;5095513;28;20043;-78
2022/04/14 10:55:00;;;;;;;6.50;4.60;;;16.00;98.30;;;;;;5077613;28;20052;-77
2022/04/14 10:57:39;;;;;;;6.50;4.55;;;16.00;98.20;;;;;;5094846;28;20535;-78
2022/04/14 11:00:37;;;;;;;6.15;4.50;;;16.00;98.40;;;;;;5062551;28;20058;-78
2022/04/14 11:03:13;;;;;;;9.10;4.20;;;15.90;98.80;;;;;;5082642;28;20073;-78
2022/04/14 11:05:44;;;;;;;6.18;3.45;;;16.00;99.60;;;;;;5062216;28;20046;-78
2022/04/14 11:08:32;;;;;;;8.18;4.20;;;16.10;99.30;;;;;;5082159;28;20039;-77
2022/04/14 11:11:18;;;;;;;5.30;2.97;;;16.40;98.40;;;;;;5095329;28;20047;-78
2022/04/14 11:14:06;;;;;;;4.22;2.20;;;16.50;96.60;;;;;;5112527;28;20058;-78
2022/04/14 11:16:47;;;;;;;5.28;1.83;;;16.60;96.90;;;;;;5096466;28;20109;-78
2022/04/14 11:19:20;;;;;;;5.85;2.47;;;16.60;96.60;;;;;;5061947;28;20095;-78
2022/04/14 11:22:08;;;;;;;4.53;2.22;;;16.70;93.90;;;;;;5111657;28;20054;-79
2022/04/14 11:24:44;;;;;;;3.90;2.03;;;16.70;95.30;;;;;;5096298;28;20040;-79
2022/04/14 11:27:36;;;;;;;4.65;2.30;;;16.70;95.40;;;;;;5095719;28;20096;-78
2022/04/14 11:30:04;;;;;;;4.68;1.83;;;16.70;93.70;;;;;;5111934;28;20048;-78
2022/04/14 11:32:37;;;;;;;4.80;2.33;;;16.70;94.80;;;;;;5094657;28;20079;-78
2022/04/14 11:35:16;;;;;;;5.88;2.30;;;16.70;94.80;;;;;;5078722;28;20067;-78
2022/04/14 11:37:57;;;;;;;4.38;2.70;;;16.80;94.50;;;;;;5095193;28;20059;-78
2022/04/14 11:40:39;;;;;;;6.03;2.60;;;16.70;95.00;;;;;;5080992;28;20143;-78
2022/04/14 11:43:09;;;;;;;5.82;3.30;;;16.80;95.30;;;;;;5080729;28;20055;-78
2022/04/14 11:45:42;;;;;;;7.57;3.50;;;16.90;95.20;;;;;;5079343;28;20047;-78
2022/04/14 11:48:13;;;;;;;6.63;2.88;;;16.90;95.00;;;;;;5111962;28;20047;-78
2022/04/14 11:50:46;;;;;;;4.38;2.30;;;17.10;95.50;;;;;;5055519;28;20062;-78
2022/04/14 11:53:13;;;;;;;3.85;2.25;;;17.10;94.50;;;;;;5078755;28;20492;-78
2022/04/14 11:55:58;;;;;;;4.95;2.20;;;17.00;93.40;;;;;;5111320;28;20399;-78
2022/04/14 11:58:44;;;;;;;3.45;2.40;;;16.90;92.60;;;;;;5103394;28;20054;-78
2022/04/14 12:01:20;;;;;;;5.25;2.78;;;16.80;93.30;;;;;;5111030;28;20448;-78
2022/04/14 12:03:48;;;;;;;3.10;2.15;;;16.80;93.90;;;;;;5109976;28;20116;-78
2022/04/14 12:06:34;;;;;;;4.18;2.00;;;16.90;93.70;;;;;;5001393;28;20088;-79
2022/04/14 12:09:21;;;;;;;7.18;2.53;;;17.00;93.70;;;;;;4998594;28;20096;-78
2022/04/14 12:11:48;;;;;;;4.07;2.30;;;17.10;93.00;;;;;;5083437;28;20519;-78
2022/04/14 12:14:24;;;;;;;4.22;2.38;;;17.20;92.40;;;;;;5093975;28;20052;-78
2022/04/14 12:17:04;;;;;;;;;;;17.20;92.20;;;;;;5050043;28;20104;-78
2022/04/14 12:20:06;;;;;;;3.22;2.22;;;17.30;90.80;;;;;;5081756;28;19927;-78
2022/04/14 12:22:43;;;;;;;4.22;1.85;;;17.50;92.50;;;;;;5111701;28;20457;-78
2022/04/14 12:25:27;;;;;;;5.45;3.10;;;17.60;92.20;;;;;;5094591;28;20492;-78
2022/04/14 12:27:57;;;;;;;6.85;2.80;;;17.60;92.40;;;;;;5110972;28;20686;-78
2022/04/14 12:30:33;;;;;;;5.97;2.70;;;17.60;90.90;;;;;;5110006;28;20048;-79
2022/04/14 12:33:08;;;;;;;4.57;2.42;;;17.60;90.80;;;;;;5080549;28;20147;-78
2022/04/14 12:35:37;;;;;;;4.03;2.20;;;17.60;90.00;;;;;;5077013;28;20079;-78
2022/04/14 12:38:41;;;;;;;5.78;3.00;;;17.60;90.60;;;;;;5096424;28;20131;-78
2022/04/14 12:41:12;;;;;;;7.95;3.00;;;17.70;90.30;;;;;;5097917;28;20056;-78
2022/04/14 12:43:51;;;;;;;5.13;2.17;;;17.70;90.50;;;;;;5096406;28;20089;-78
2022/04/14 12:46:30;;;;;;;7.05;2.15;;;17.70;89.90;;;;;;5099703;28;20058;-78
2022/04/14 12:49:29;;;;;;;4.93;2.30;;;17.70;88.40;;;;;;5114868;28;20101;-79
2022/04/14 12:52:20;;;;;;;3.83;1.65;;;17.60;89.00;;;;;;5114488;28;20062;-78